Time;durP1;ratioP1;P1;durP2;ratioP2;P2;SDS_P1;SDS_P2;PMS_P1;PMS_P2;Temp;Humidity;BMP_temperature;BMP_pressure;BME280_temperature;BME280_humidity;BME280_pressure;Samples;Min_cycle;Max_cycle;Signal;HPM_P1;HPM_P2
2023/12/13 00:01:56;;;;;;;31.77;15.50;;;;;;;;;;5006177;28;20030;-76
2023/12/13 00:04:22;;;;;;;29.50;17.48;;;;;;;;;;5022216;28;20034;-77
2023/12/13 00:06:49;;;;;;;34.90;17.00;;;;;;;;;;5007711;28;20414;-77
2023/12/13 00:09:15;;;;;;;33.10;17.25;;;;;;;;;;5006726;28;20022;-76
2023/12/13 00:11:41;;;;;;;29.38;16.98;;;;;;;;;;5008002;28;20187;-77
2023/12/13 00:14:08;;;;;;;34.92;19.73;;;;;;;;;;5005695;28;20426;-77
2023/12/13 00:16:37;;;;;;;33.47;18.65;;;;;;;;;;5009341;28;20022;-77
2023/12/13 00:19:04;;;;;;;36.67;19.63;;;;;;;;;;5007525;28;20034;-77
2023/12/13 00:21:30;;;;;;;31.55;19.25;;;;;;;;;;5009896;28;20069;-78
2023/12/13 00:23:56;;;;;;;42.38;20.98;;;;;;;;;;5008976;28;20515;-77
2023/12/13 00:26:23;;;;;;;36.20;20.40;;;;;;;;;;5009820;28;20049;-76
2023/12/13 00:28:50;;;;;;;34.80;20.23;;;;;;;;;;5010949;28;20046;-78
2023/12/13 00:31:16;;;;;;;36.70;19.75;;;;;;;;;;4992676;28;20042;-77
2023/12/13 00:33:42;;;;;;;37.92;20.33;;;;;;;;;;5008373;28;20045;-77
2023/12/13 00:36:09;;;;;;;38.47;20.63;;;;;;;;;;5024842;28;20038;-77
2023/12/13 00:38:35;;;;;;;35.17;20.88;;;;;;;;;;5022251;28;20030;-77
2023/12/13 00:41:01;;;;;;;34.15;21.08;;;;;;;;;;5009804;28;20049;-78
2023/12/13 00:43:27;;;;;;;42.88;20.92;;;;;;;;;;5022618;28;20018;-77
2023/12/13 00:45:54;;;;;;;35.25;19.27;;;;;;;;;;5008410;28;20056;-77
2023/12/13 00:48:20;;;;;;;36.92;19.35;;;;;;;;;;5009272;28;20463;-77
2023/12/13 00:50:46;;;;;;;37.88;20.83;;;;;;;;;;5023640;28;20601;-76
2023/12/13 00:53:12;;;;;;;38.08;20.50;;;;;;;;;;5009715;28;20022;-77
2023/12/13 00:55:39;;;;;;;34.45;19.85;;;;;;;;;;5018961;28;20037;-76
2023/12/13 00:58:05;;;;;;;35.03;20.52;;;;;;;;;;5023654;28;20431;-77
2023/12/13 01:00:32;;;;;;;32.75;18.33;;;;;;;;;;5007359;28;20481;-76
2023/12/13 01:02:58;;;;;;;35.80;20.92;;;;;;;;;;5008198;28;20032;-76
2023/12/13 01:05:25;;;;;;;37.10;20.88;;;;;;;;;;5007156;28;20033;-78
2023/12/13 01:07:52;;;;;;;34.00;19.25;;;;;;;;;;5009960;28;20129;-77
2023/12/13 01:10:20;;;;;;;35.50;21.08;;;;;;;;;;5009104;28;20026;-77
2023/12/13 01:12:46;;;;;;;36.78;21.02;;;;;;;;;;5009513;28;20087;-77
2023/12/13 01:15:12;;;;;;;37.17;20.30;;;;;;;;;;5009409;28;20064;-78
2023/12/13 01:17:38;;;;;;;37.92;21.95;;;;;;;;;;5009139;28;20042;-77
2023/12/13 01:20:09;;;;;;;39.20;21.10;;;;;;;;;;5011692;28;20026;-77
2023/12/13 01:22:35;;;;;;;33.40;19.80;;;;;;;;;;5024064;28;20033;-76
2023/12/13 01:25:02;;;;;;;39.88;21.67;;;;;;;;;;5008778;28;20014;-75
2023/12/13 01:27:29;;;;;;;34.80;20.40;;;;;;;;;;5009942;28;20367;-76
2023/12/13 01:29:55;;;;;;;33.92;21.45;;;;;;;;;;5009056;28;20029;-77
2023/12/13 01:32:21;;;;;;;33.95;21.42;;;;;;;;;;5009897;28;20034;-77
2023/12/13 01:34:47;;;;;;;35.42;21.80;;;;;;;;;;5009576;28;20037;-76
2023/12/13 01:37:13;;;;;;;36.42;21.15;;;;;;;;;;5008961;28;20050;-77
2023/12/13 01:39:41;;;;;;;36.55;21.98;;;;;;;;;;5008519;28;20075;-76
2023/12/13 01:42:07;;;;;;;32.22;21.27;;;;;;;;;;4992606;28;20021;-77
2023/12/13 01:44:33;;;;;;;37.17;21.10;;;;;;;;;;5007844;28;20030;-76
2023/12/13 01:47:01;;;;;;;37.88;19.83;;;;;;;;;;5008281;28;20444;-78
2023/12/13 01:49:27;;;;;;;32.90;19.27;;;;;;;;;;5003037;28;20037;-76
2023/12/13 01:51:54;;;;;;;36.08;19.52;;;;;;;;;;5017849;28;20458;-76
2023/12/13 01:54:20;;;;;;;32.45;19.45;;;;;;;;;;5011535;28;20484;-77
2023/12/13 01:56:46;;;;;;;34.80;18.48;;;;;;;;;;5026497;28;20034;-76
2023/12/13 01:59:13;;;;;;;36.22;18.52;;;;;;;;;;5017732;28;20046;-76
2023/12/13 02:01:39;;;;;;;34.47;19.30;;;;;;;;;;5004842;28;20144;-76
2023/12/13 02:04:06;;;;;;;37.60;19.27;;;;;;;;;;5007749;28;20080;-77
2023/12/13 02:06:32;;;;;;;31.63;18.35;;;;;;;;;;5008371;28;20064;-76
2023/12/13 02:08:58;;;;;;;27.08;17.02;;;;;;;;;;5003159;28;20038;-76
2023/12/13 02:11:24;;;;;;;32.60;17.23;;;;;;;;;;5020226;28;20058;-76
2023/12/13 02:13:51;;;;;;;30.13;16.73;;;;;;;;;;5008421;28;20030;-76
2023/12/13 02:16:17;;;;;;;33.10;18.08;;;;;;;;;;5002644;28;20049;-77
2023/12/13 02:18:43;;;;;;;32.10;18.42;;;;;;;;;;5002486;28;20052;-76
2023/12/13 02:21:09;;;;;;;37.53;18.70;;;;;;;;;;5008620;28;20476;-76
2023/12/13 02:23:36;;;;;;;33.83;19.83;;;;;;;;;;5007965;28;20033;-76
2023/12/13 02:26:05;;;;;;;31.27;19.33;;;;;;;;;;5008844;28;20022;-77
2023/12/13 02:28:31;;;;;;;33.35;19.02;;;;;;;;;;5008170;28;20076;-77
2023/12/13 02:30:58;;;;;;;32.70;18.80;;;;;;;;;;5022954;28;20057;-77
2023/12/13 02:33:25;;;;;;;33.05;19.20;;;;;;;;;;5007664;28;20026;-76
2023/12/13 02:35:56;;;;;;;32.20;18.95;;;;;;;;;;5006419;28;20081;-75
2023/12/13 02:38:22;;;;;;;34.42;20.17;;;;;;;;;;5007978;28;20483;-77
2023/12/13 02:40:49;;;;;;;35.10;19.83;;;;;;;;;;5007470;28;20662;-76
2023/12/13 02:43:16;;;;;;;33.20;19.15;;;;;;;;;;5008740;28;20472;-76
2023/12/13 02:45:42;;;;;;;34.97;20.00;;;;;;;;;;5008264;28;20095;-76
2023/12/13 02:48:08;;;;;;;35.47;19.70;;;;;;;;;;5008301;28;20049;-77
2023/12/13 02:50:36;;;;;;;35.95;19.48;;;;;;;;;;5015983;28;20075;-75
2023/12/13 02:53:06;;;;;;;33.90;19.35;;;;;;;;;;5027744;28;20087;-76
2023/12/13 02:55:32;;;;;;;32.22;20.35;;;;;;;;;;5027380;28;20160;-75
2023/12/13 02:57:59;;;;;;;33.55;19.83;;;;;;;;;;5027612;28;20140;-76
2023/12/13 03:00:26;;;;;;;38.40;19.52;;;;;;;;;;5028691;28;20083;-77
2023/12/13 03:02:52;;;;;;;32.38;19.10;;;;;;;;;;5024613;28;20120;-77
2023/12/13 03:05:18;;;;;;;32.72;19.23;;;;;;;;;;5024930;28;20025;-76
2023/12/13 03:07:44;;;;;;;35.13;19.25;;;;;;;;;;5027633;28;20179;-76
2023/12/13 03:10:10;;;;;;;28.58;19.38;;;;;;;;;;5023224;28;20220;-76
2023/12/13 03:12:36;;;;;;;33.00;18.08;;;;;;;;;;5010099;28;20038;-76
2023/12/13 03:15:03;;;;;;;32.83;18.50;;;;;;;;;;5027261;28;20049;-77
2023/12/13 03:17:29;;;;;;;38.28;18.73;;;;;;;;;;5009107;28;20515;-76
2023/12/13 03:19:55;;;;;;;34.13;19.70;;;;;;;;;;5008386;28;20037;-76
2023/12/13 03:22:22;;;;;;;36.97;20.15;;;;;;;;;;5009361;28;20033;-76
2023/12/13 03:24:48;;;;;;;33.15;19.75;;;;;;;;;;4995988;28;20048;-75
2023/12/13 03:27:15;;;;;;;35.58;20.65;;;;;;;;;;5027844;28;20036;-75
2023/12/13 03:29:41;;;;;;;38.25;21.58;;;;;;;;;;5008767;28;20022;-75
2023/12/13 03:32:07;;;;;;;37.13;22.52;;;;;;;;;;5024014;28;20025;-76
2023/12/13 03:34:33;;;;;;;38.00;22.73;;;;;;;;;;5009321;28;20087;-76
2023/12/13 03:36:59;;;;;;;39.22;22.95;;;;;;;;;;5027398;28;20025;-76
2023/12/13 03:39:25;;;;;;;34.75;21.73;;;;;;;;;;5026104;28;20041;-75
2023/12/13 03:41:51;;;;;;;40.60;23.33;;;;;;;;;;5026465;28;20557;-77
2023/12/13 03:44:17;;;;;;;42.70;25.85;;;;;;;;;;5025552;28;20025;-77
2023/12/13 03:46:44;;;;;;;45.33;23.27;;;;;;;;;;5023740;28;20026;-76
2023/12/13 03:49:11;;;;;;;46.17;24.02;;;;;;;;;;5027525;28;20103;-76
2023/12/13 03:51:37;;;;;;;47.22;25.90;;;;;;;;;;5022358;28;20045;-77
2023/12/13 03:54:03;;;;;;;45.10;25.88;;;;;;;;;;5028134;28;20025;-76
2023/12/13 03:56:29;;;;;;;50.22;27.42;;;;;;;;;;5030238;28;20087;-77
2023/12/13 03:58:56;;;;;;;48.03;26.45;;;;;;;;;;5030368;28;20050;-76
2023/12/13 04:01:22;;;;;;;50.42;26.98;;;;;;;;;;5026923;28;20526;-76
2023/12/13 04:03:48;;;;;;;41.97;26.08;;;;;;;;;;5013463;28;20030;-77
2023/12/13 04:06:15;;;;;;;49.13;27.27;;;;;;;;;;5034586;28;20080;-76
2023/12/13 04:08:41;;;;;;;54.40;26.98;;;;;;;;;;5029595;28;20087;-76
2023/12/13 04:11:07;;;;;;;50.05;25.90;;;;;;;;;;5030582;28;20037;-77
2023/12/13 04:13:33;;;;;;;50.60;27.20;;;;;;;;;;5030869;28;20044;-77
2023/12/13 04:15:59;;;;;;;49.90;26.70;;;;;;;;;;5013716;28;20116;-76
2023/12/13 04:18:25;;;;;;;50.92;28.30;;;;;;;;;;5031105;28;20040;-76
2023/12/13 04:20:51;;;;;;;47.03;26.77;;;;;;;;;;5012723;28;20116;-77
2023/12/13 04:23:17;;;;;;;51.55;26.88;;;;;;;;;;5029723;28;20033;-76
2023/12/13 04:25:44;;;;;;;49.47;26.73;;;;;;;;;;5026391;28;20083;-76
2023/12/13 04:28:10;;;;;;;54.92;27.20;;;;;;;;;;5031167;28;20061;-76
2023/12/13 04:30:36;;;;;;;50.33;26.33;;;;;;;;;;5029777;28;20112;-76
2023/12/13 04:33:02;;;;;;;53.03;26.77;;;;;;;;;;5015089;28;20087;-76
2023/12/13 04:35:28;;;;;;;54.10;27.10;;;;;;;;;;5027777;28;20495;-76
2023/12/13 04:37:54;;;;;;;54.80;27.85;;;;;;;;;;5030009;28;20282;-76
2023/12/13 04:40:21;;;;;;;52.13;26.98;;;;;;;;;;5020455;28;20094;-76
2023/12/13 04:42:47;;;;;;;49.95;25.63;;;;;;;;;;5029070;28;20113;-76
2023/12/13 04:45:14;;;;;;;55.63;25.85;;;;;;;;;;5030182;28;20175;-77
2023/12/13 04:47:40;;;;;;;50.72;25.17;;;;;;;;;;4995501;28;20042;-76
2023/12/13 04:50:07;;;;;;;50.05;26.73;;;;;;;;;;5007750;28;20533;-76
2023/12/13 04:52:33;;;;;;;53.33;25.67;;;;;;;;;;5010671;28;20119;-77
2023/12/13 04:54:59;;;;;;;57.95;28.13;;;;;;;;;;5024697;28;20291;-77
2023/12/13 04:57:26;;;;;;;51.17;26.85;;;;;;;;;;5008622;28;20050;-76
2023/12/13 04:59:52;;;;;;;50.80;25.80;;;;;;;;;;5008342;28;20030;-76
2023/12/13 05:02:18;;;;;;;50.35;26.85;;;;;;;;;;5009508;28;20017;-77
2023/12/13 05:04:45;;;;;;;54.22;27.08;;;;;;;;;;5010322;28;20421;-77
2023/12/13 05:07:11;;;;;;;50.13;26.98;;;;;;;;;;5011211;28;20026;-76
2023/12/13 05:09:37;;;;;;;52.58;27.38;;;;;;;;;;5010785;28;20063;-77
2023/12/13 05:12:03;;;;;;;60.70;27.80;;;;;;;;;;5010472;28;20026;-76
2023/12/13 05:14:30;;;;;;;55.63;28.15;;;;;;;;;;5026023;28;20082;-76
2023/12/13 05:16:57;;;;;;;52.45;27.50;;;;;;;;;;5010228;28;20125;-76
2023/12/13 05:19:23;;;;;;;60.28;26.85;;;;;;;;;;5024260;28;20037;-76
2023/12/13 05:21:51;;;;;;;60.53;28.95;;;;;;;;;;5010104;28;20030;-75
2023/12/13 05:24:17;;;;;;;56.65;27.73;;;;;;;;;;5009506;28;20036;-77
2023/12/13 05:26:43;;;;;;;57.13;27.60;;;;;;;;;;5009145;28;20120;-76
2023/12/13 05:29:09;;;;;;;54.40;28.27;;;;;;;;;;5010549;28;20034;-77
2023/12/13 05:31:35;;;;;;;62.05;27.35;;;;;;;;;;5009524;28;20037;-77
2023/12/13 05:34:02;;;;;;;63.03;29.23;;;;;;;;;;5008758;28;20037;-77
2023/12/13 05:36:28;;;;;;;62.80;28.55;;;;;;;;;;5010275;28;20030;-76
2023/12/13 05:38:54;;;;;;;65.22;29.45;;;;;;;;;;5008478;28;20088;-77
2023/12/13 05:41:20;;;;;;;59.80;29.55;;;;;;;;;;5010461;28;20402;-74
2023/12/13 05:43:51;;;;;;;64.27;28.90;;;;;;;;;;5024953;28;20049;-75
2023/12/13 05:46:17;;;;;;;79.78;31.98;;;;;;;;;;5024359;28;20117;-77
2023/12/13 05:48:44;;;;;;;69.85;29.85;;;;;;;;;;5009556;28;20038;-75
2023/12/13 05:51:10;;;;;;;62.33;30.00;;;;;;;;;;5024546;28;20069;-75
2023/12/13 05:53:36;;;;;;;72.60;29.80;;;;;;;;;;5010015;28;20038;-75
2023/12/13 05:56:04;;;;;;;64.68;29.80;;;;;;;;;;5009663;28;20368;-75
2023/12/13 05:58:30;;;;;;;64.53;30.77;;;;;;;;;;5009475;28;20057;-76
2023/12/13 06:00:57;;;;;;;75.72;32.05;;;;;;;;;;5008536;28;20025;-75
2023/12/13 06:03:24;;;;;;;66.18;30.10;;;;;;;;;;5023933;28;20125;-76
2023/12/13 06:05:50;;;;;;;67.78;31.17;;;;;;;;;;5008226;28;20052;-76
2023/12/13 06:08:17;;;;;;;66.07;30.60;;;;;;;;;;5006876;28;20033;-77
2023/12/13 06:10:43;;;;;;;61.25;28.83;;;;;;;;;;5005217;28;20034;-77
2023/12/13 06:13:10;;;;;;;66.07;31.85;;;;;;;;;;5025574;28;20029;-77
2023/12/13 06:15:38;;;;;;;69.57;30.08;;;;;;;;;;5008662;28;20030;-77
2023/12/13 06:18:04;;;;;;;63.05;28.80;;;;;;;;;;5004389;28;20037;-76
2023/12/13 06:20:31;;;;;;;68.78;30.85;;;;;;;;;;5004614;28;20121;-78
2023/12/13 06:22:57;;;;;;;70.70;30.45;;;;;;;;;;5025164;28;20037;-77
2023/12/13 06:25:24;;;;;;;63.25;28.45;;;;;;;;;;5009867;28;20383;-78
2023/12/13 06:27:51;;;;;;;60.72;27.67;;;;;;;;;;5009780;28;20096;-77
2023/12/13 06:30:17;;;;;;;59.67;28.52;;;;;;;;;;4996355;28;20085;-77
2023/12/13 06:32:43;;;;;;;65.55;27.05;;;;;;;;;;4996578;28;20045;-77
2023/12/13 06:35:09;;;;;;;59.83;26.60;;;;;;;;;;5009417;28;20574;-77
2023/12/13 06:37:35;;;;;;;65.47;26.75;;;;;;;;;;5002178;28;20037;-76
2023/12/13 06:40:01;;;;;;;59.35;27.40;;;;;;;;;;4999159;28;20026;-76
2023/12/13 06:42:28;;;;;;;57.55;26.70;;;;;;;;;;5009348;28;20025;-76
2023/12/13 06:44:54;;;;;;;61.35;25.38;;;;;;;;;;5009772;28;20037;-75
2023/12/13 06:47:20;;;;;;;64.22;26.70;;;;;;;;;;5009791;28;20026;-76
2023/12/13 06:49:46;;;;;;;59.65;26.52;;;;;;;;;;5009028;28;20100;-76
2023/12/13 06:52:13;;;;;;;57.45;26.35;;;;;;;;;;5029216;28;20465;-76
2023/12/13 06:54:39;;;;;;;58.65;25.67;;;;;;;;;;5011782;28;20033;-77
2023/12/13 06:57:06;;;;;;;56.30;26.38;;;;;;;;;;5011717;28;20033;-76
2023/12/13 06:59:32;;;;;;;55.75;26.40;;;;;;;;;;5029455;28;20509;-77
2023/12/13 07:02:00;;;;;;;66.95;26.10;;;;;;;;;;5026892;28;20032;-75
2023/12/13 07:04:26;;;;;;;60.83;25.50;;;;;;;;;;5011757;28;20034;-77
2023/12/13 07:06:54;;;;;;;59.75;26.58;;;;;;;;;;5028893;28;20022;-76
2023/12/13 07:09:20;;;;;;;55.72;26.08;;;;;;;;;;5027785;28;20033;-75
2023/12/13 07:11:46;;;;;;;59.88;27.05;;;;;;;;;;5028514;28;20350;-78
2023/12/13 07:14:14;;;;;;;60.08;25.45;;;;;;;;;;5010978;28;20292;-77
2023/12/13 07:16:41;;;;;;;63.33;26.20;;;;;;;;;;5010170;28;20107;-77
2023/12/13 07:19:07;;;;;;;60.95;25.63;;;;;;;;;;5028566;28;20042;-77
2023/12/13 07:21:34;;;;;;;53.50;25.70;;;;;;;;;;5027453;28;20084;-76
2023/12/13 07:24:01;;;;;;;64.40;26.83;;;;;;;;;;5028625;28;20069;-75
2023/12/13 07:26:27;;;;;;;59.58;26.17;;;;;;;;;;5032628;28;20080;-75
2023/12/13 07:28:53;;;;;;;61.08;25.67;;;;;;;;;;5033200;28;20123;-76
2023/12/13 07:31:20;;;;;;;59.85;27.75;;;;;;;;;;5032808;28;20056;-76
2023/12/13 07:33:46;;;;;;;70.90;27.23;;;;;;;;;;5032652;28;20099;-77
2023/12/13 07:36:14;;;;;;;61.15;26.35;;;;;;;;;;5032640;28;20044;-75
2023/12/13 07:38:41;;;;;;;59.22;24.98;;;;;;;;;;5014776;28;20041;-75
2023/12/13 07:41:08;;;;;;;58.25;26.73;;;;;;;;;;5032750;28;20021;-76
2023/12/13 07:43:34;;;;;;;60.72;26.45;;;;;;;;;;5014933;28;20025;-77
2023/12/13 07:46:00;;;;;;;65.88;27.33;;;;;;;;;;5032029;28;20391;-76
2023/12/13 07:48:26;;;;;;;72.05;27.95;;;;;;;;;;5014660;28;20034;-76
2023/12/13 07:50:53;;;;;;;66.70;28.55;;;;;;;;;;5027560;28;20040;-76
2023/12/13 07:53:19;;;;;;;61.40;28.05;;;;;;;;;;5029383;28;20033;-78
2023/12/13 07:55:46;;;;;;;75.57;28.23;;;;;;;;;;5031997;28;20038;-76
2023/12/13 07:58:13;;;;;;;80.45;29.50;;;;;;;;;;5031920;28;20517;-75
2023/12/13 08:00:40;;;;;;;69.60;28.17;;;;;;;;;;5030999;28;20025;-76
2023/12/13 08:03:06;;;;;;;68.90;28.50;;;;;;;;;;5011854;28;20034;-75
2023/12/13 08:05:32;;;;;;;67.88;28.77;;;;;;;;;;5012698;28;20029;-76
2023/12/13 08:08:00;;;;;;;71.88;29.27;;;;;;;;;;5027568;28;20044;-77
2023/12/13 08:10:26;;;;;;;69.85;28.23;;;;;;;;;;5014621;28;20115;-76
2023/12/13 08:12:52;;;;;;;61.15;27.50;;;;;;;;;;5033086;28;20072;-76
2023/12/13 08:15:18;;;;;;;65.00;26.92;;;;;;;;;;5032269;28;20116;-78
2023/12/13 08:17:44;;;;;;;78.53;29.20;;;;;;;;;;5032622;28;20039;-75
2023/12/13 08:20:11;;;;;;;73.95;28.90;;;;;;;;;;5034245;28;20041;-75
2023/12/13 08:22:38;;;;;;;69.97;28.02;;;;;;;;;;5034611;28;20040;-76
2023/12/13 08:25:04;;;;;;;68.47;28.80;;;;;;;;;;5034189;28;20026;-76
2023/12/13 08:27:30;;;;;;;66.22;28.85;;;;;;;;;;5032610;28;20045;-76
2023/12/13 08:29:56;;;;;;;66.18;26.95;;;;;;;;;;5032466;28;20087;-75
2023/12/13 08:32:23;;;;;;;70.78;29.30;;;;;;;;;;5014452;28;20413;-77
2023/12/13 08:34:49;;;;;;;73.32;29.15;;;;;;;;;;5031540;28;20565;-77
2023/12/13 08:37:17;;;;;;;80.35;30.05;;;;;;;;;;5029550;28;20044;-77
2023/12/13 08:39:43;;;;;;;71.95;28.33;;;;;;;;;;5031077;28;20045;-76
2023/12/13 08:42:09;;;;;;;81.78;29.98;;;;;;;;;;5013831;28;20095;-76
2023/12/13 08:44:35;;;;;;;77.10;30.58;;;;;;;;;;5031861;28;20037;-76
2023/12/13 08:47:01;;;;;;;61.70;28.08;;;;;;;;;;5013493;28;20041;-76
2023/12/13 08:49:27;;;;;;;67.28;29.17;;;;;;;;;;5031318;28;20037;-78
2023/12/13 08:51:53;;;;;;;81.40;29.17;;;;;;;;;;5028912;28;20052;-77
2023/12/13 08:54:20;;;;;;;69.38;28.77;;;;;;;;;;5014167;28;20132;-77
2023/12/13 08:56:46;;;;;;;71.25;28.58;;;;;;;;;;5013834;28;20041;-77
2023/12/13 08:59:12;;;;;;;68.90;28.23;;;;;;;;;;5031661;28;20033;-77
2023/12/13 09:01:39;;;;;;;72.95;29.08;;;;;;;;;;5029847;28;20033;-77
2023/12/13 09:04:06;;;;;;;83.28;30.17;;;;;;;;;;5030417;28;20145;-77
2023/12/13 09:06:32;;;;;;;68.68;28.73;;;;;;;;;;5031114;28;20043;-77
2023/12/13 09:08:59;;;;;;;68.38;28.67;;;;;;;;;;5031692;28;20026;-77
2023/12/13 09:11:25;;;;;;;74.63;29.85;;;;;;;;;;5030596;28;20509;-76
2023/12/13 09:13:51;;;;;;;80.88;29.65;;;;;;;;;;5013992;28;20075;-77
2023/12/13 09:16:17;;;;;;;66.63;26.45;;;;;;;;;;5013504;28;20021;-77
2023/12/13 09:18:44;;;;;;;74.97;27.27;;;;;;;;;;5031662;28;20045;-76
2023/12/13 09:21:10;;;;;;;74.63;29.15;;;;;;;;;;5013400;28;20029;-77
2023/12/13 09:23:36;;;;;;;78.55;28.75;;;;;;;;;;5031490;28;20121;-77
2023/12/13 09:26:05;;;;;;;70.20;27.33;;;;;;;;;;5013381;28;20079;-76
2023/12/13 09:28:35;;;;;;;76.35;29.25;;;;;;;;;;5013176;28;20151;-77
2023/12/13 09:31:02;;;;;;;68.28;28.10;;;;;;;;;;5013492;28;20139;-77
2023/12/13 09:33:28;;;;;;;65.55;28.17;;;;;;;;;;5031053;28;20429;-76
2023/12/13 09:35:55;;;;;;;57.60;26.88;;;;;;;;;;5031080;28;20053;-76
2023/12/13 09:38:21;;;;;;;58.65;26.58;;;;;;;;;;5013077;28;20141;-76
2023/12/13 09:40:48;;;;;;;59.17;26.73;;;;;;;;;;5030664;28;20021;-77
2023/12/13 09:43:14;;;;;;;63.80;27.35;;;;;;;;;;5031166;28;20053;-77
2023/12/13 09:45:41;;;;;;;59.67;26.65;;;;;;;;;;5030352;28;20091;-77
2023/12/13 09:48:08;;;;;;;56.50;26.33;;;;;;;;;;5011818;28;20033;-77
2023/12/13 09:50:34;;;;;;;57.67;25.70;;;;;;;;;;5029833;28;20049;-76
2023/12/13 09:53:01;;;;;;;54.45;26.05;;;;;;;;;;5012636;28;20041;-76
2023/12/13 09:55:27;;;;;;;52.95;24.48;;;;;;;;;;5029443;28;20026;-78
2023/12/13 09:57:53;;;;;;;48.58;23.45;;;;;;;;;;5030011;28;20049;-77
2023/12/13 10:00:19;;;;;;;53.40;24.13;;;;;;;;;;5030500;28;20038;-76
2023/12/13 10:02:46;;;;;;;50.58;21.77;;;;;;;;;;5030713;28;20029;-76
2023/12/13 10:05:16;;;;;;;45.15;23.15;;;;;;;;;;5030092;28;20103;-76
2023/12/13 10:07:43;;;;;;;44.83;23.98;;;;;;;;;;5012016;28;20488;-77
2023/12/13 10:10:09;;;;;;;44.70;22.50;;;;;;;;;;5030040;28;20044;-77
2023/12/13 10:12:37;;;;;;;36.88;21.00;;;;;;;;;;5029491;28;20061;-77
2023/12/13 10:15:08;;;;;;;41.58;21.98;;;;;;;;;;5030071;28;20033;-77
2023/12/13 10:17:34;;;;;;;39.67;22.13;;;;;;;;;;5011827;28;20150;-76
2023/12/13 10:20:00;;;;;;;41.65;21.55;;;;;;;;;;5028885;28;20240;-77
2023/12/13 10:22:26;;;;;;;40.10;21.00;;;;;;;;;;5028344;28;20021;-77
2023/12/13 10:24:52;;;;;;;44.95;22.38;;;;;;;;;;5031028;28;20033;-77
2023/12/13 10:27:19;;;;;;;43.25;23.67;;;;;;;;;;5030247;28;20021;-76
2023/12/13 10:29:48;;;;;;;49.42;23.67;;;;;;;;;;5030174;28;20086;-78
2023/12/13 10:32:14;;;;;;;47.55;23.10;;;;;;;;;;5011227;28;20053;-78
2023/12/13 10:34:40;;;;;;;45.40;23.55;;;;;;;;;;5030109;28;20257;-78
2023/12/13 10:37:07;;;;;;;48.75;22.92;;;;;;;;;;5012292;28;20483;-78
2023/12/13 10:39:35;;;;;;;44.78;23.73;;;;;;;;;;5029863;28;20052;-79
2023/12/13 10:42:02;;;;;;;49.00;24.77;;;;;;;;;;5029499;28;20029;-77
2023/12/13 10:44:31;;;;;;;44.60;23.52;;;;;;;;;;5028400;28;20064;-77
2023/12/13 10:46:58;;;;;;;46.88;22.63;;;;;;;;;;5030104;28;20029;-78
2023/12/13 10:49:24;;;;;;;51.45;23.30;;;;;;;;;;5012369;28;20050;-78
2023/12/13 10:51:54;;;;;;;42.88;22.17;;;;;;;;;;5008629;28;20139;-77
2023/12/13 10:54:21;;;;;;;49.33;23.50;;;;;;;;;;5008800;28;20057;-78
2023/12/13 10:56:47;;;;;;;45.85;23.05;;;;;;;;;;5024924;28;20483;-77
2023/12/13 10:59:13;;;;;;;43.00;22.30;;;;;;;;;;5009397;28;20081;-77
2023/12/13 11:01:41;;;;;;;44.30;21.02;;;;;;;;;;5010427;28;20030;-77
2023/12/13 11:04:09;;;;;;;46.08;21.90;;;;;;;;;;5009751;28;20030;-78
2023/12/13 11:06:40;;;;;;;45.65;22.35;;;;;;;;;;5009509;28;20032;-79
2023/12/13 11:09:06;;;;;;;;;;;;;;;;;;5010497;28;20041;-78
2023/12/13 11:11:34;;;;;;;43.88;21.55;;;;;;;;;;5009802;28;19964;-77
2023/12/13 11:14:01;;;;;;;43.67;20.70;;;;;;;;;;5009958;28;20053;-77
2023/12/13 11:16:28;;;;;;;49.83;20.45;;;;;;;;;;5024996;28;20042;-77
2023/12/13 11:18:57;;;;;;;38.25;19.33;;;;;;;;;;5009779;28;20113;-78
2023/12/13 11:21:27;;;;;;;41.45;19.42;;;;;;;;;;5010230;28;20101;-78
2023/12/13 11:23:54;;;;;;;41.83;19.52;;;;;;;;;;5009978;28;20034;-78
2023/12/13 11:26:24;;;;;;;45.08;19.65;;;;;;;;;;5026050;28;20037;-77
2023/12/13 11:28:51;;;;;;;42.28;20.58;;;;;;;;;;5009574;28;20491;-77
2023/12/13 11:31:22;;;;;;;44.88;19.75;;;;;;;;;;5008073;28;20026;-78
2023/12/13 11:33:49;;;;;;;42.97;19.67;;;;;;;;;;5008665;28;20049;-78
2023/12/13 11:36:20;;;;;;;38.38;18.73;;;;;;;;;;5011264;28;20515;-77
2023/12/13 11:38:46;;;;;;;31.55;18.42;;;;;;;;;;5011971;28;20030;-77
2023/12/13 11:41:12;;;;;;;44.15;20.52;;;;;;;;;;5025155;28;20253;-77
2023/12/13 11:43:39;;;;;;;37.78;20.00;;;;;;;;;;5008760;28;20022;-77
2023/12/13 11:46:05;;;;;;;39.83;20.90;;;;;;;;;;5010144;28;20144;-77
2023/12/13 11:48:31;;;;;;;47.30;21.40;;;;;;;;;;5008732;28;20052;-77
2023/12/13 11:50:57;;;;;;;40.65;19.58;;;;;;;;;;5008461;28;20077;-77
2023/12/13 11:53:23;;;;;;;39.83;19.20;;;;;;;;;;5009505;28;20135;-77
2023/12/13 11:55:50;;;;;;;40.05;19.58;;;;;;;;;;5009777;28;20046;-77
2023/12/13 11:58:16;;;;;;;36.90;19.17;;;;;;;;;;5025335;28;20038;-78
2023/12/13 12:00:43;;;;;;;37.70;20.25;;;;;;;;;;5010172;28;20034;-78
2023/12/13 12:03:09;;;;;;;38.63;21.48;;;;;;;;;;5024712;28;20029;-77
2023/12/13 12:05:35;;;;;;;36.45;19.83;;;;;;;;;;5010318;28;20145;-77
2023/12/13 12:08:06;;;;;;;41.70;20.38;;;;;;;;;;5024040;28;20061;-78
2023/12/13 12:10:33;;;;;;;36.70;19.73;;;;;;;;;;5026556;28;20030;-77
2023/12/13 12:13:00;;;;;;;38.72;20.38;;;;;;;;;;5028494;28;20025;-77
2023/12/13 12:15:26;;;;;;;37.50;19.77;;;;;;;;;;5028638;28;20036;-77
2023/12/13 12:17:54;;;;;;;41.42;20.05;;;;;;;;;;5012768;28;20068;-77
2023/12/13 12:20:21;;;;;;;38.42;20.05;;;;;;;;;;5012586;28;20073;-77
2023/12/13 12:22:47;;;;;;;42.03;21.08;;;;;;;;;;5028202;28;20028;-76
2023/12/13 12:25:14;;;;;;;35.17;20.52;;;;;;;;;;5011177;28;20080;-77
2023/12/13 12:27:48;;;;;;;46.60;21.45;;;;;;;;;;5013309;28;20026;-77
2023/12/13 12:30:16;;;;;;;37.03;19.98;;;;;;;;;;5013125;28;20042;-77
2023/12/13 12:32:42;;;;;;;37.70;19.17;;;;;;;;;;5012878;28;20029;-77
2023/12/13 12:35:08;;;;;;;42.83;19.13;;;;;;;;;;5012963;28;20033;-77
2023/12/13 12:37:35;;;;;;;36.28;19.45;;;;;;;;;;5010917;28;20046;-77
2023/12/13 12:40:03;;;;;;;41.78;20.17;;;;;;;;;;5011041;28;20034;-77
2023/12/13 12:42:29;;;;;;;38.67;20.00;;;;;;;;;;5027081;28;20053;-77
2023/12/13 12:44:55;;;;;;;39.85;20.63;;;;;;;;;;5012317;28;20032;-77
2023/12/13 12:47:21;;;;;;;43.88;19.73;;;;;;;;;;5012204;28;20180;-77
2023/12/13 12:49:48;;;;;;;41.88;20.63;;;;;;;;;;5012721;28;20030;-77
2023/12/13 12:52:14;;;;;;;34.60;19.42;;;;;;;;;;5026901;28;20081;-77
2023/12/13 12:54:40;;;;;;;41.53;19.35;;;;;;;;;;5011911;28;20033;-77
2023/12/13 12:57:06;;;;;;;47.72;20.70;;;;;;;;;;5012083;28;20077;-78
2023/12/13 12:59:33;;;;;;;41.50;19.98;;;;;;;;;;5011837;28;20080;-78
2023/12/13 13:02:00;;;;;;;40.75;20.33;;;;;;;;;;5011704;28;20041;-77
2023/12/13 13:04:26;;;;;;;40.55;19.98;;;;;;;;;;5010785;28;20040;-77
2023/12/13 13:06:56;;;;;;;40.25;21.13;;;;;;;;;;5011729;28;20124;-76
2023/12/13 13:09:22;;;;;;;42.78;20.40;;;;;;;;;;5011978;28;20488;-77
2023/12/13 13:11:48;;;;;;;40.00;20.15;;;;;;;;;;5011391;28;20181;-77
2023/12/13 13:14:14;;;;;;;42.92;19.45;;;;;;;;;;5011979;28;20033;-76
2023/12/13 13:16:41;;;;;;;39.17;20.45;;;;;;;;;;5012166;28;20285;-77
2023/12/13 13:19:07;;;;;;;42.70;19.33;;;;;;;;;;5026194;28;20033;-76
2023/12/13 13:21:33;;;;;;;39.28;19.25;;;;;;;;;;5009722;28;20038;-78
2023/12/13 13:23:59;;;;;;;40.47;20.08;;;;;;;;;;5012274;28;20024;-76
2023/12/13 13:26:26;;;;;;;41.55;19.20;;;;;;;;;;5010675;28;20034;-78
2023/12/13 13:28:53;;;;;;;41.38;20.02;;;;;;;;;;5011974;28;20084;-77
2023/12/13 13:31:21;;;;;;;35.47;20.00;;;;;;;;;;5027052;28;20473;-77
2023/12/13 13:33:47;;;;;;;44.25;19.48;;;;;;;;;;5026834;28;20525;-76
2023/12/13 13:36:14;;;;;;;43.78;20.35;;;;;;;;;;5012180;28;20030;-76
2023/12/13 13:38:40;;;;;;;47.55;21.17;;;;;;;;;;5011206;28;20049;-76
2023/12/13 13:41:07;;;;;;;44.28;20.45;;;;;;;;;;5011204;28;20025;-77
2023/12/13 13:43:34;;;;;;;38.47;20.00;;;;;;;;;;5025907;28;20040;-77
2023/12/13 13:46:00;;;;;;;41.72;19.48;;;;;;;;;;5011082;28;20034;-77
2023/12/13 13:48:27;;;;;;;37.78;19.83;;;;;;;;;;5026677;28;20128;-77
2023/12/13 13:50:53;;;;;;;43.03;20.70;;;;;;;;;;5026091;28;20072;-78
2023/12/13 13:53:20;;;;;;;45.15;20.90;;;;;;;;;;5009829;28;20045;-78
2023/12/13 13:55:46;;;;;;;42.38;22.23;;;;;;;;;;5010720;28;20355;-78
2023/12/13 13:58:12;;;;;;;45.40;20.95;;;;;;;;;;5005941;28;20361;-77
2023/12/13 14:00:39;;;;;;;42.17;20.17;;;;;;;;;;4991646;28;20034;-77
2023/12/13 14:03:05;;;;;;;44.13;21.25;;;;;;;;;;5018139;28;20030;-77
2023/12/13 14:05:35;;;;;;;46.10;21.48;;;;;;;;;;5027874;28;20112;-77
2023/12/13 14:08:04;;;;;;;38.15;18.83;;;;;;;;;;5006964;28;20042;-77
2023/12/13 14:10:30;;;;;;;34.83;15.63;;;;;;;;;;5007353;28;20030;-76
2023/12/13 14:12:57;;;;;;;16.13;10.15;;;;;;;;;;5010659;28;20037;-76
2023/12/13 14:15:26;;;;;;;25.60;13.43;;;;;;;;;;5009093;28;20022;-77